sensor_id;sensor_type;location;lat;lon;timestamp;pressure;altitude;pressure_sealevel;temperature;humidity
31538;BME280;18147;51.952;6.146;2022-10-16T00:02:21;100910.97;;;11.51;100.00
31538;BME280;18147;51.952;6.146;2022-10-16T00:04:47;100915.09;;;11.42;100.00
31538;BME280;18147;51.952;6.146;2022-10-16T00:07:12;100907.38;;;11.37;100.00
31538;BME280;18147;51.952;6.146;2022-10-16T00:09:38;100909.88;;;11.53;100.00
31538;BME280;18147;51.952;6.146;2022-10-16T00:12:03;100913.94;;;11.46;100.00
31538;BME280;18147;51.952;6.146;2022-10-16T00:14:29;100908.63;;;11.59;100.00
31538;BME280;18147;51.952;6.146;2022-10-16T00:16:55;100918.56;;;11.57;100.00
31538;BME280;18147;51.952;6.146;2022-10-16T00:19:20;100914.47;;;11.51;100.00
31538;BME280;18147;51.952;6.146;2022-10-16T00:21:46;100919.00;;;11.63;100.00
31538;BME280;18147;51.952;6.146;2022-10-16T00:24:11;100917.91;;;11.53;100.00
31538;BME280;18147;51.952;6.146;2022-10-16T00:26:38;100908.06;;;11.54;100.00
31538;BME280;18147;51.952;6.146;2022-10-16T00:29:04;100914.22;;;11.41;100.00
31538;BME280;18147;51.952;6.146;2022-10-16T00:31:30;100907.75;;;11.46;100.00
31538;BME280;18147;51.952;6.146;2022-10-16T00:33:56;100910.50;;;11.44;100.00
31538;BME280;18147;51.952;6.146;2022-10-16T00:36:23;100913.63;;;11.51;100.00
31538;BME280;18147;51.952;6.146;2022-10-16T00:38:56;100900.69;;;11.45;100.00
31538;BME280;18147;51.952;6.146;2022-10-16T00:41:24;100912.56;;;11.53;100.00
31538;BME280;18147;51.952;6.146;2022-10-16T00:43:51;100906.16;;;11.56;100.00
31538;BME280;18147;51.952;6.146;2022-10-16T00:48:59;100912.78;;;11.50;100.00
31538;BME280;18147;51.952;6.146;2022-10-16T00:51:32;100916.59;;;11.46;100.00
31538;BME280;18147;51.952;6.146;2022-10-16T00:53:58;100909.16;;;11.51;100.00
31538;BME280;18147;51.952;6.146;2022-10-16T00:56:24;100906.66;;;11.48;100.00
31538;BME280;18147;51.952;6.146;2022-10-16T00:58:50;100902.47;;;11.44;100.00
31538;BME280;18147;51.952;6.146;2022-10-16T01:01:15;100904.47;;;11.55;100.00
31538;BME280;18147;51.952;6.146;2022-10-16T01:03:40;100898.56;;;11.50;100.00
31538;BME280;18147;51.952;6.146;2022-10-16T01:06:23;100903.69;;;11.53;100.00
31538;BME280;18147;51.952;6.146;2022-10-16T01:08:58;100902.78;;;11.39;100.00
31538;BME280;18147;51.952;6.146;2022-10-16T01:11:29;100909.63;;;11.44;100.00
31538;BME280;18147;51.952;6.146;2022-10-16T01:14:00;100901.19;;;11.37;100.00
31538;BME280;18147;51.952;6.146;2022-10-16T01:17:24;100907.22;;;11.53;100.00
31538;BME280;18147;51.952;6.146;2022-10-16T01:20:01;100912.06;;;11.34;100.00
31538;BME280;18147;51.952;6.146;2022-10-16T01:22:38;100908.03;;;11.41;100.00
31538;BME280;18147;51.952;6.146;2022-10-16T01:25:11;100914.03;;;11.45;100.00
31538;BME280;18147;51.952;6.146;2022-10-16T01:27:40;100910.41;;;11.46;100.00
31538;BME280;18147;51.952;6.146;2022-10-16T01:30:14;100907.19;;;11.40;100.00
31538;BME280;18147;51.952;6.146;2022-10-16T01:35:42;100909.59;;;11.31;100.00
31538;BME280;18147;51.952;6.146;2022-10-16T01:38:32;100901.75;;;11.42;100.00
31538;BME280;18147;51.952;6.146;2022-10-16T01:41:01;100898.25;;;11.27;100.00
31538;BME280;18147;51.952;6.146;2022-10-16T01:43:34;100894.63;;;11.28;100.00
31538;BME280;18147;51.952;6.146;2022-10-16T01:46:01;100903.59;;;11.27;100.00
31538;BME280;18147;51.952;6.146;2022-10-16T01:48:29;100896.03;;;11.34;100.00
31538;BME280;18147;51.952;6.146;2022-10-16T01:51:05;100903.28;;;11.32;100.00
31538;BME280;18147;51.952;6.146;2022-10-16T01:53:32;100902.69;;;11.41;100.00
31538;BME280;18147;51.952;6.146;2022-10-16T01:55:59;100904.50;;;11.40;100.00
31538;BME280;18147;51.952;6.146;2022-10-16T01:58:27;100892.88;;;11.41;100.00
31538;BME280;18147;51.952;6.146;2022-10-16T02:00:56;100900.06;;;11.54;100.00
31538;BME280;18147;51.952;6.146;2022-10-16T02:03:22;100914.69;;;11.48;100.00
31538;BME280;18147;51.952;6.146;2022-10-16T02:05:53;100919.53;;;11.56;100.00
31538;BME280;18147;51.952;6.146;2022-10-16T02:08:20;100921.22;;;11.57;100.00
31538;BME280;18147;51.952;6.146;2022-10-16T02:10:47;100901.31;;;11.48;100.00
31538;BME280;18147;51.952;6.146;2022-10-16T02:13:28;100902.09;;;11.50;100.00
31538;BME280;18147;51.952;6.146;2022-10-16T02:15:55;100906.97;;;11.44;100.00
31538;BME280;18147;51.952;6.146;2022-10-16T02:18:20;100918.59;;;11.43;100.00
31538;BME280;18147;51.952;6.146;2022-10-16T02:26:17;100921.94;;;11.46;100.00
31538;BME280;18147;51.952;6.146;2022-10-16T02:28:53;100923.47;;;11.50;100.00
31538;BME280;18147;51.952;6.146;2022-10-16T02:31:27;100927.28;;;11.46;100.00
31538;BME280;18147;51.952;6.146;2022-10-16T02:33:56;100923.50;;;11.63;100.00
31538;BME280;18147;51.952;6.146;2022-10-16T02:36:25;100931.09;;;11.69;100.00
31538;BME280;18147;51.952;6.146;2022-10-16T02:38:50;100924.81;;;11.70;100.00
31538;BME280;18147;51.952;6.146;2022-10-16T02:41:17;100919.56;;;11.68;100.00
31538;BME280;18147;51.952;6.146;2022-10-16T02:43:42;100916.50;;;11.75;100.00
31538;BME280;18147;51.952;6.146;2022-10-16T02:46:08;100917.97;;;11.66;100.00
31538;BME280;18147;51.952;6.146;2022-10-16T02:48:33;100909.81;;;11.67;100.00
31538;BME280;18147;51.952;6.146;2022-10-16T02:51:00;100910.56;;;11.70;100.00
31538;BME280;18147;51.952;6.146;2022-10-16T02:53:25;100906.84;;;11.72;100.00
31538;BME280;18147;51.952;6.146;2022-10-16T02:55:50;100899.50;;;11.76;100.00
31538;BME280;18147;51.952;6.146;2022-10-16T02:58:16;100894.34;;;11.73;100.00
31538;BME280;18147;51.952;6.146;2022-10-16T03:00:41;100905.75;;;11.62;100.00
31538;BME280;18147;51.952;6.146;2022-10-16T03:03:07;100916.31;;;11.63;100.00
31538;BME280;18147;51.952;6.146;2022-10-16T03:05:33;100922.09;;;11.57;100.00
31538;BME280;18147;51.952;6.146;2022-10-16T03:07:58;100912.97;;;11.47;100.00
31538;BME280;18147;51.952;6.146;2022-10-16T03:10:26;100912.97;;;11.47;100.00
31538;BME280;18147;51.952;6.146;2022-10-16T03:12:52;100910.72;;;11.41;100.00
31538;BME280;18147;51.952;6.146;2022-10-16T03:15:17;100923.28;;;11.39;100.00
31538;BME280;18147;51.952;6.146;2022-10-16T03:17:43;100905.38;;;11.41;100.00
31538;BME280;18147;51.952;6.146;2022-10-16T03:20:08;100911.84;;;11.37;100.00
31538;BME280;18147;51.952;6.146;2022-10-16T03:22:34;100916.34;;;11.36;100.00
31538;BME280;18147;51.952;6.146;2022-10-16T03:24:59;100929.59;;;11.38;100.00
31538;BME280;18147;51.952;6.146;2022-10-16T03:27:25;100930.84;;;11.32;100.00
31538;BME280;18147;51.952;6.146;2022-10-16T03:29:50;100932.25;;;11.38;100.00
31538;BME280;18147;51.952;6.146;2022-10-16T03:32:16;100941.41;;;11.34;100.00
31538;BME280;18147;51.952;6.146;2022-10-16T03:34:41;100938.56;;;11.37;100.00
31538;BME280;18147;51.952;6.146;2022-10-16T03:37:07;100933.09;;;11.38;100.00
31538;BME280;18147;51.952;6.146;2022-10-16T03:39:32;100939.13;;;11.42;100.00
31538;BME280;18147;51.952;6.146;2022-10-16T03:41:57;100940.94;;;11.41;100.00
31538;BME280;18147;51.952;6.146;2022-10-16T03:44:23;100941.03;;;11.40;100.00
31538;BME280;18147;51.952;6.146;2022-10-16T03:46:48;100945.19;;;11.44;100.00
31538;BME280;18147;51.952;6.146;2022-10-16T03:49:14;100946.84;;;11.47;100.00
31538;BME280;18147;51.952;6.146;2022-10-16T03:51:40;100951.22;;;11.48;100.00
31538;BME280;18147;51.952;6.146;2022-10-16T03:54:05;100951.63;;;11.41;100.00
31538;BME280;18147;51.952;6.146;2022-10-16T03:56:31;100963.72;;;11.47;100.00
31538;BME280;18147;51.952;6.146;2022-10-16T03:58:56;100946.16;;;11.43;100.00
31538;BME280;18147;51.952;6.146;2022-10-16T04:01:21;100950.53;;;11.44;100.00
31538;BME280;18147;51.952;6.146;2022-10-16T04:03:47;100949.06;;;11.40;100.00
31538;BME280;18147;51.952;6.146;2022-10-16T04:06:12;100942.19;;;11.36;100.00
31538;BME280;18147;51.952;6.146;2022-10-16T04:08:38;100960.72;;;11.25;100.00
31538;BME280;18147;51.952;6.146;2022-10-16T04:11:04;100960.41;;;11.29;100.00
31538;BME280;18147;51.952;6.146;2022-10-16T04:13:30;100961.63;;;11.38;100.00
31538;BME280;18147;51.952;6.146;2022-10-16T04:15:55;100972.53;;;11.35;100.00
31538;BME280;18147;51.952;6.146;2022-10-16T04:18:21;100964.59;;;11.33;100.00
31538;BME280;18147;51.952;6.146;2022-10-16T04:20:46;100969.84;;;11.35;100.00
31538;BME280;18147;51.952;6.146;2022-10-16T04:23:11;100981.56;;;11.32;100.00
31538;BME280;18147;51.952;6.146;2022-10-16T04:25:37;100985.38;;;11.28;100.00
31538;BME280;18147;51.952;6.146;2022-10-16T04:28:02;100986.16;;;11.30;100.00
31538;BME280;18147;51.952;6.146;2022-10-16T04:30:28;100985.56;;;11.39;100.00
31538;BME280;18147;51.952;6.146;2022-10-16T04:32:53;100989.38;;;11.50;100.00
31538;BME280;18147;51.952;6.146;2022-10-16T04:35:20;100992.13;;;11.48;100.00
31538;BME280;18147;51.952;6.146;2022-10-16T04:37:46;100992.34;;;11.45;100.00
31538;BME280;18147;51.952;6.146;2022-10-16T04:40:12;100986.59;;;11.51;100.00
31538;BME280;18147;51.952;6.146;2022-10-16T04:42:37;100984.31;;;11.45;100.00
31538;BME280;18147;51.952;6.146;2022-10-16T04:45:04;100996.72;;;11.46;100.00
31538;BME280;18147;51.952;6.146;2022-10-16T04:47:30;100999.50;;;11.45;100.00
31538;BME280;18147;51.952;6.146;2022-10-16T04:49:55;100999.00;;;11.38;100.00
31538;BME280;18147;51.952;6.146;2022-10-16T04:52:21;101001.69;;;11.38;100.00
31538;BME280;18147;51.952;6.146;2022-10-16T04:54:49;101002.25;;;11.29;100.00
31538;BME280;18147;51.952;6.146;2022-10-16T04:57:15;101008.84;;;11.23;100.00
31538;BME280;18147;51.952;6.146;2022-10-16T04:59:41;101009.63;;;11.25;100.00
31538;BME280;18147;51.952;6.146;2022-10-16T05:02:06;101016.78;;;11.10;100.00
31538;BME280;18147;51.952;6.146;2022-10-16T05:04:32;101022.69;;;11.15;100.00
31538;BME280;18147;51.952;6.146;2022-10-16T05:06:57;101022.47;;;11.19;100.00
31538;BME280;18147;51.952;6.146;2022-10-16T05:09:22;101017.44;;;11.14;100.00
31538;BME280;18147;51.952;6.146;2022-10-16T05:11:48;101024.69;;;11.12;100.00
31538;BME280;18147;51.952;6.146;2022-10-16T05:14:13;101029.56;;;11.05;100.00
31538;BME280;18147;51.952;6.146;2022-10-16T05:16:39;101024.97;;;11.07;100.00
31538;BME280;18147;51.952;6.146;2022-10-16T05:19:04;101034.97;;;11.04;100.00
31538;BME280;18147;51.952;6.146;2022-10-16T05:21:30;101040.41;;;11.02;100.00
31538;BME280;18147;51.952;6.146;2022-10-16T05:23:55;101036.03;;;11.01;100.00
31538;BME280;18147;51.952;6.146;2022-10-16T05:26:21;101038.72;;;11.01;100.00
31538;BME280;18147;51.952;6.146;2022-10-16T05:28:46;101039.09;;;10.95;100.00
31538;BME280;18147;51.952;6.146;2022-10-16T05:31:11;101044.44;;;10.95;100.00
31538;BME280;18147;51.952;6.146;2022-10-16T05:33:37;101048.59;;;10.99;100.00
31538;BME280;18147;51.952;6.146;2022-10-16T05:36:07;101046.31;;;10.93;100.00
31538;BME280;18147;51.952;6.146;2022-10-16T05:38:37;101055.28;;;10.92;100.00
31538;BME280;18147;51.952;6.146;2022-10-16T05:41:03;101068.31;;;10.82;100.00
31538;BME280;18147;51.952;6.146;2022-10-16T05:43:30;101072.22;;;10.77;100.00
31538;BME280;18147;51.952;6.146;2022-10-16T05:45:58;101074.13;;;10.75;100.00
31538;BME280;18147;51.952;6.146;2022-10-16T05:48:24;101069.06;;;10.70;100.00
31538;BME280;18147;51.952;6.146;2022-10-16T05:51:01;101074.47;;;10.69;100.00
31538;BME280;18147;51.952;6.146;2022-10-16T05:53:28;101074.97;;;10.61;100.00
31538;BME280;18147;51.952;6.146;2022-10-16T05:55:55;101078.31;;;10.65;100.00
31538;BME280;18147;51.952;6.146;2022-10-16T05:58:21;101087.16;;;10.65;100.00
31538;BME280;18147;51.952;6.146;2022-10-16T06:00:55;101092.78;;;10.60;100.00
31538;BME280;18147;51.952;6.146;2022-10-16T06:03:20;101100.41;;;10.67;100.00
31538;BME280;18147;51.952;6.146;2022-10-16T06:05:46;101106.50;;;10.69;100.00
31538;BME280;18147;51.952;6.146;2022-10-16T06:08:11;101115.16;;;10.72;100.00
31538;BME280;18147;51.952;6.146;2022-10-16T06:10:37;101115.78;;;10.92;100.00
31538;BME280;18147;51.952;6.146;2022-10-16T06:13:02;101121.78;;;10.81;100.00
31538;BME280;18147;51.952;6.146;2022-10-16T06:15:28;101121.00;;;10.79;100.00
31538;BME280;18147;51.952;6.146;2022-10-16T06:17:53;101124.13;;;10.71;100.00
31538;BME280;18147;51.952;6.146;2022-10-16T06:20:18;101130.72;;;10.80;100.00
31538;BME280;18147;51.952;6.146;2022-10-16T06:22:44;101138.81;;;10.78;100.00
31538;BME280;18147;51.952;6.146;2022-10-16T06:25:09;101135.28;;;10.78;100.00
31538;BME280;18147;51.952;6.146;2022-10-16T06:27:35;101135.28;;;10.78;100.00
31538;BME280;18147;51.952;6.146;2022-10-16T06:30:00;101132.13;;;10.71;100.00
31538;BME280;18147;51.952;6.146;2022-10-16T06:32:27;101137.19;;;10.76;100.00
31538;BME280;18147;51.952;6.146;2022-10-16T06:34:52;101145.00;;;10.79;100.00
31538;BME280;18147;51.952;6.146;2022-10-16T06:37:18;101139.06;;;10.89;100.00
31538;BME280;18147;51.952;6.146;2022-10-16T06:39:43;101144.78;;;11.12;100.00
31538;BME280;18147;51.952;6.146;2022-10-16T06:42:09;101136.91;;;11.25;100.00
31538;BME280;18147;51.952;6.146;2022-10-16T06:44:35;101148.25;;;11.43;100.00
31538;BME280;18147;51.952;6.146;2022-10-16T06:47:00;101147.19;;;11.59;100.00
31538;BME280;18147;51.952;6.146;2022-10-16T06:49:26;101149.13;;;11.86;100.00
31538;BME280;18147;51.952;6.146;2022-10-16T06:51:51;101154.38;;;12.14;100.00
31538;BME280;18147;51.952;6.146;2022-10-16T06:54:16;101164.16;;;12.42;100.00
31538;BME280;18147;51.952;6.146;2022-10-16T06:56:43;101159.19;;;12.63;100.00
31538;BME280;18147;51.952;6.146;2022-10-16T06:59:08;101168.78;;;12.93;100.00
31538;BME280;18147;51.952;6.146;2022-10-16T07:01:33;101171.22;;;13.23;100.00
31538;BME280;18147;51.952;6.146;2022-10-16T07:04:00;101179.47;;;13.33;100.00
31538;BME280;18147;51.952;6.146;2022-10-16T07:06:26;101187.19;;;13.63;100.00
31538;BME280;18147;51.952;6.146;2022-10-16T07:08:52;101190.59;;;13.78;100.00
31538;BME280;18147;51.952;6.146;2022-10-16T07:11:22;101196.75;;;14.04;100.00
31538;BME280;18147;51.952;6.146;2022-10-16T07:13:48;101195.13;;;14.50;100.00
31538;BME280;18147;51.952;6.146;2022-10-16T07:16:16;101208.34;;;14.04;100.00
31538;BME280;18147;51.952;6.146;2022-10-16T07:18:43;101207.56;;;14.15;100.00
31538;BME280;18147;51.952;6.146;2022-10-16T07:21:20;101207.00;;;13.73;100.00
31538;BME280;18147;51.952;6.146;2022-10-16T07:23:50;101208.28;;;13.67;100.00
31538;BME280;18147;51.952;6.146;2022-10-16T07:26:16;101211.81;;;13.55;100.00
31538;BME280;18147;51.952;6.146;2022-10-16T07:28:42;101219.78;;;13.57;100.00
31538;BME280;18147;51.952;6.146;2022-10-16T07:31:11;101222.34;;;13.58;100.00
31538;BME280;18147;51.952;6.146;2022-10-16T07:33:39;101222.34;;;13.58;100.00
31538;BME280;18147;51.952;6.146;2022-10-16T07:36:05;101232.63;;;13.52;100.00
31538;BME280;18147;51.952;6.146;2022-10-16T07:38:31;101247.84;;;13.51;100.00
31538;BME280;18147;51.952;6.146;2022-10-16T07:41:02;101249.22;;;13.44;100.00
31538;BME280;18147;51.952;6.146;2022-10-16T07:43:28;101254.91;;;13.39;100.00
31538;BME280;18147;51.952;6.146;2022-10-16T07:45:54;101265.72;;;13.38;100.00
31538;BME280;18147;51.952;6.146;2022-10-16T07:48:20;101263.38;;;13.46;100.00
31538;BME280;18147;51.952;6.146;2022-10-16T07:50:47;101269.06;;;13.41;100.00
31538;BME280;18147;51.952;6.146;2022-10-16T07:53:13;101273.88;;;13.49;100.00
31538;BME280;18147;51.952;6.146;2022-10-16T07:55:39;101280.44;;;13.58;100.00
31538;BME280;18147;51.952;6.146;2022-10-16T07:58:05;101279.22;;;13.49;100.00
31538;BME280;18147;51.952;6.146;2022-10-16T08:00:31;101276.13;;;13.42;100.00
31538;BME280;18147;51.952;6.146;2022-10-16T08:02:57;101285.13;;;13.54;100.00
31538;BME280;18147;51.952;6.146;2022-10-16T08:05:27;101281.41;;;13.69;100.00
31538;BME280;18147;51.952;6.146;2022-10-16T08:07:53;101283.44;;;13.91;100.00
31538;BME280;18147;51.952;6.146;2022-10-16T08:10:21;101294.06;;;14.06;100.00
31538;BME280;18147;51.952;6.146;2022-10-16T08:12:46;101292.00;;;14.09;100.00
31538;BME280;18147;51.952;6.146;2022-10-16T08:15:12;101296.06;;;14.15;100.00
31538;BME280;18147;51.952;6.146;2022-10-16T08:17:37;101287.81;;;14.18;100.00
31538;BME280;18147;51.952;6.146;2022-10-16T08:20:03;101294.47;;;14.12;100.00
31538;BME280;18147;51.952;6.146;2022-10-16T08:22:29;101294.03;;;14.18;100.00
31538;BME280;18147;51.952;6.146;2022-10-16T08:24:54;101288.44;;;14.34;100.00
31538;BME280;18147;51.952;6.146;2022-10-16T08:27:20;101294.13;;;14.30;100.00
31538;BME280;18147;51.952;6.146;2022-10-16T08:29:45;101301.56;;;14.26;100.00
31538;BME280;18147;51.952;6.146;2022-10-16T08:32:10;101304.00;;;14.42;100.00
31538;BME280;18147;51.952;6.146;2022-10-16T08:34:36;101307.09;;;14.61;100.00
31538;BME280;18147;51.952;6.146;2022-10-16T08:37:01;101309.41;;;14.66;100.00
31538;BME280;18147;51.952;6.146;2022-10-16T08:39:27;101314.03;;;14.76;100.00
31538;BME280;18147;51.952;6.146;2022-10-16T08:42:21;101318.78;;;14.60;100.00
31538;BME280;18147;51.952;6.146;2022-10-16T08:45:24;101322.94;;;14.77;100.00
31538;BME280;18147;51.952;6.146;2022-10-16T08:50:38;101334.44;;;15.27;100.00
31538;BME280;18147;51.952;6.146;2022-10-16T08:53:05;101347.53;;;15.08;100.00
31538;BME280;18147;51.952;6.146;2022-10-16T08:55:41;101347.09;;;15.25;100.00
31538;BME280;18147;51.952;6.146;2022-10-16T08:58:18;101343.56;;;15.24;100.00
31538;BME280;18147;51.952;6.146;2022-10-16T09:00:53;101351.34;;;15.16;100.00
31538;BME280;18147;51.952;6.146;2022-10-16T09:05:57;101357.56;;;15.65;100.00
31538;BME280;18147;51.952;6.146;2022-10-16T09:14:23;101373.59;;;15.66;100.00
31538;BME280;18147;51.952;6.146;2022-10-16T09:16:57;101372.44;;;15.58;100.00
31538;BME280;18147;51.952;6.146;2022-10-16T09:19:32;101364.56;;;15.67;100.00
31538;BME280;18147;51.952;6.146;2022-10-16T09:22:12;101371.19;;;15.86;100.00
31538;BME280;18147;51.952;6.146;2022-10-16T09:24:39;101369.81;;;15.80;100.00
31538;BME280;18147;51.952;6.146;2022-10-16T09:27:04;101377.91;;;15.91;100.00
31538;BME280;18147;51.952;6.146;2022-10-16T09:29:32;101381.72;;;15.89;100.00
31538;BME280;18147;51.952;6.146;2022-10-16T09:32:10;101377.81;;;15.93;100.00
31538;BME280;18147;51.952;6.146;2022-10-16T09:34:40;101379.31;;;15.97;100.00
31538;BME280;18147;51.952;6.146;2022-10-16T09:37:12;101372.47;;;16.15;100.00
31538;BME280;18147;51.952;6.146;2022-10-16T09:39:52;101379.19;;;16.21;100.00
31538;BME280;18147;51.952;6.146;2022-10-16T09:42:31;101383.16;;;16.28;100.00
31538;BME280;18147;51.952;6.146;2022-10-16T09:44:58;101392.06;;;16.28;100.00
31538;BME280;18147;51.952;6.146;2022-10-16T09:47:25;101387.19;;;16.34;100.00
31538;BME280;18147;51.952;6.146;2022-10-16T09:52:22;101401.13;;;16.50;100.00
31538;BME280;18147;51.952;6.146;2022-10-16T09:54:53;101398.09;;;16.32;100.00
31538;BME280;18147;51.952;6.146;2022-10-16T09:57:19;101407.25;;;16.41;100.00
31538;BME280;18147;51.952;6.146;2022-10-16T09:59:55;101406.53;;;16.50;98.37
31538;BME280;18147;51.952;6.146;2022-10-16T10:02:37;101413.28;;;16.67;98.78
31538;BME280;18147;51.952;6.146;2022-10-16T10:05:23;101411.16;;;16.70;100.00
31538;BME280;18147;51.952;6.146;2022-10-16T10:08:01;101412.53;;;16.42;100.00
31538;BME280;18147;51.952;6.146;2022-10-16T10:10:32;101409.34;;;16.60;98.13
31538;BME280;18147;51.952;6.146;2022-10-16T10:12:59;101415.50;;;16.73;97.56
31538;BME280;18147;51.952;6.146;2022-10-16T10:15:32;101414.38;;;16.87;100.00
31538;BME280;18147;51.952;6.146;2022-10-16T10:17:58;101420.66;;;16.87;100.00
31538;BME280;18147;51.952;6.146;2022-10-16T10:20:29;101418.31;;;16.82;97.63
31538;BME280;18147;51.952;6.146;2022-10-16T10:22:56;101420.25;;;16.92;98.09
31538;BME280;18147;51.952;6.146;2022-10-16T10:25:53;101414.72;;;17.04;96.93
31538;BME280;18147;51.952;6.146;2022-10-16T10:31:30;101414.59;;;17.17;94.42
31538;BME280;18147;51.952;6.146;2022-10-16T10:36:53;101428.56;;;17.54;95.22
31538;BME280;18147;51.952;6.146;2022-10-16T10:39:32;101420.56;;;17.32;94.03
31538;BME280;18147;51.952;6.146;2022-10-16T10:55:37;101438.47;;;17.11;92.88
31538;BME280;18147;51.952;6.146;2022-10-16T11:01:39;101427.25;;;17.49;90.09
31538;BME280;18147;51.952;6.146;2022-10-16T11:07:15;101433.91;;;17.33;90.22
31538;BME280;18147;51.952;6.146;2022-10-16T11:09:50;101437.56;;;17.44;85.05
31538;BME280;18147;51.952;6.146;2022-10-16T11:12:29;101439.84;;;17.59;84.75
31538;BME280;18147;51.952;6.146;2022-10-16T11:15:19;101450.63;;;17.92;84.79
31538;BME280;18147;51.952;6.146;2022-10-16T11:17:54;101446.28;;;17.79;84.21
31538;BME280;18147;51.952;6.146;2022-10-16T11:20:28;101447.31;;;17.99;84.19
31538;BME280;18147;51.952;6.146;2022-10-16T11:23:02;101452.84;;;17.98;81.10
31538;BME280;18147;51.952;6.146;2022-10-16T11:25:31;101453.94;;;18.37;77.72
31538;BME280;18147;51.952;6.146;2022-10-16T11:28:16;101455.94;;;18.14;77.72
31538;BME280;18147;51.952;6.146;2022-10-16T11:30:59;101463.19;;;18.14;79.90
31538;BME280;18147;51.952;6.146;2022-10-16T11:33:42;101463.28;;;18.12;80.04
31538;BME280;18147;51.952;6.146;2022-10-16T11:36:38;101464.28;;;17.90;80.57
31538;BME280;18147;51.952;6.146;2022-10-16T11:49:33;101460.78;;;18.62;76.55
31538;BME280;18147;51.952;6.146;2022-10-16T11:52:30;101465.81;;;18.25;75.51
31538;BME280;18147;51.952;6.146;2022-10-16T11:55:05;101459.63;;;18.34;77.28
31538;BME280;18147;51.952;6.146;2022-10-16T11:57:39;101465.84;;;18.55;75.23
31538;BME280;18147;51.952;6.146;2022-10-16T12:00:21;101468.97;;;18.51;76.25
31538;BME280;18147;51.952;6.146;2022-10-16T12:02:54;101469.81;;;18.30;75.45
31538;BME280;18147;51.952;6.146;2022-10-16T12:08:26;101479.69;;;18.41;74.11
31538;BME280;18147;51.952;6.146;2022-10-16T12:10:52;101481.91;;;18.68;75.17
31538;BME280;18147;51.952;6.146;2022-10-16T12:13:47;101480.22;;;18.35;72.93
31538;BME280;18147;51.952;6.146;2022-10-16T12:18:45;101477.84;;;18.42;76.15
31538;BME280;18147;51.952;6.146;2022-10-16T12:21:13;101482.84;;;18.67;75.96
31538;BME280;18147;51.952;6.146;2022-10-16T12:23:52;101489.19;;;18.35;74.94
31538;BME280;18147;51.952;6.146;2022-10-16T12:26:27;101485.88;;;18.32;75.87
31538;BME280;18147;51.952;6.146;2022-10-16T12:28:55;101490.44;;;18.31;76.70
31538;BME280;18147;51.952;6.146;2022-10-16T12:31:21;101487.34;;;18.36;75.06
31538;BME280;18147;51.952;6.146;2022-10-16T12:34:00;101491.31;;;18.53;76.03
31538;BME280;18147;51.952;6.146;2022-10-16T12:36:34;101495.13;;;18.50;76.12
31538;BME280;18147;51.952;6.146;2022-10-16T12:39:00;101501.28;;;18.73;73.65
31538;BME280;18147;51.952;6.146;2022-10-16T12:41:31;101495.81;;;18.94;72.44
31538;BME280;18147;51.952;6.146;2022-10-16T12:43:58;101496.06;;;18.91;72.81
31538;BME280;18147;51.952;6.146;2022-10-16T12:46:44;101495.88;;;18.62;72.16
31538;BME280;18147;51.952;6.146;2022-10-16T12:51:38;101502.22;;;18.51;71.90
31538;BME280;18147;51.952;6.146;2022-10-16T12:56:46;101504.53;;;18.56;72.99
31538;BME280;18147;51.952;6.146;2022-10-16T13:02:03;101506.63;;;18.31;73.97
31538;BME280;18147;51.952;6.146;2022-10-16T13:07:52;101502.00;;;18.22;74.84
31538;BME280;18147;51.952;6.146;2022-10-16T13:10:40;101507.91;;;18.27;74.24
31538;BME280;18147;51.952;6.146;2022-10-16T13:15:56;101503.09;;;18.31;73.47
31538;BME280;18147;51.952;6.146;2022-10-16T13:23:31;101503.81;;;18.33;73.44
31538;BME280;18147;51.952;6.146;2022-10-16T13:26:28;101498.28;;;18.34;74.94
31538;BME280;18147;51.952;6.146;2022-10-16T13:28:59;101497.22;;;18.26;73.60
31538;BME280;18147;51.952;6.146;2022-10-16T13:31:27;101505.53;;;18.34;72.54
31538;BME280;18147;51.952;6.146;2022-10-16T13:33:55;101507.38;;;18.33;73.84
31538;BME280;18147;51.952;6.146;2022-10-16T13:36:28;101508.69;;;18.18;73.99
31538;BME280;18147;51.952;6.146;2022-10-16T13:39:09;101506.78;;;18.30;72.46
31538;BME280;18147;51.952;6.146;2022-10-16T13:41:36;101507.31;;;18.45;73.59
31538;BME280;18147;51.952;6.146;2022-10-16T13:44:01;101517.13;;;18.46;73.64
31538;BME280;18147;51.952;6.146;2022-10-16T13:46:27;101512.19;;;18.30;72.81
31538;BME280;18147;51.952;6.146;2022-10-16T13:49:13;101510.00;;;18.45;72.80
31538;BME280;18147;51.952;6.146;2022-10-16T13:51:38;101516.94;;;18.37;73.89
31538;BME280;18147;51.952;6.146;2022-10-16T13:54:04;101516.00;;;18.27;75.53
31538;BME280;18147;51.952;6.146;2022-10-16T13:56:31;101519.28;;;18.31;76.18
31538;BME280;18147;51.952;6.146;2022-10-16T13:59:01;101525.34;;;18.23;73.80
31538;BME280;18147;51.952;6.146;2022-10-16T14:01:34;101528.91;;;18.45;74.56
31538;BME280;18147;51.952;6.146;2022-10-16T14:04:02;101521.59;;;18.35;75.99
31538;BME280;18147;51.952;6.146;2022-10-16T14:06:29;101518.66;;;18.38;74.69
31538;BME280;18147;51.952;6.146;2022-10-16T14:09:17;101523.06;;;18.40;74.28
31538;BME280;18147;51.952;6.146;2022-10-16T14:11:48;101520.81;;;18.24;75.14
31538;BME280;18147;51.952;6.146;2022-10-16T14:14:17;101517.28;;;18.12;75.89
31538;BME280;18147;51.952;6.146;2022-10-16T14:16:43;101525.09;;;17.94;78.28
31538;BME280;18147;51.952;6.146;2022-10-16T14:19:29;101526.00;;;17.83;78.80
31538;BME280;18147;51.952;6.146;2022-10-16T14:21:55;101528.88;;;18.03;79.24